Time;durP1;ratioP1;P1;durP2;ratioP2;P2;SDS_P1;SDS_P2;PMS_P1;PMS_P2;Temp;Humidity;BMP_temperature;BMP_pressure;BME280_temperature;BME280_humidity;BME280_pressure;Samples;Min_cycle;Max_cycle;Signal;HPM_P1;HPM_P2
2023/12/12 00:01:46;;;;;;;16.55;5.32;;;;;;;6.50;100.00;100809.28;5069849;28;20688;-76
2023/12/12 00:04:12;;;;;;;16.85;5.40;;;;;;;6.45;100.00;100812.84;5071920;28;20521;-76
2023/12/12 00:06:37;;;;;;;15.93;5.43;;;;;;;6.42;100.00;100812.84;5053906;28;20044;-76
2023/12/12 00:09:03;;;;;;;18.38;5.22;;;;;;;6.37;100.00;100819.88;5071434;28;20036;-76
2023/12/12 00:11:28;;;;;;;13.30;4.72;;;;;;;6.37;100.00;100816.38;5066403;28;20170;-76
2023/12/12 00:13:54;;;;;;;14.52;4.88;;;;;;;6.30;100.00;100812.88;5064159;28;20048;-76
2023/12/12 00:16:19;;;;;;;13.65;4.75;;;;;;;6.29;100.00;100812.91;5070259;28;20083;-77
2023/12/12 00:18:45;;;;;;;11.00;5.03;;;;;;;6.23;100.00;100822.59;5069405;28;20044;-76
2023/12/12 00:21:10;;;;;;;14.15;4.82;;;;;;;6.15;100.00;100823.47;5071358;28;20098;-76
2023/12/12 00:23:36;;;;;;;12.57;4.82;;;;;;;6.07;100.00;100825.28;5071824;28;20495;-76
2023/12/12 00:26:01;;;;;;;17.90;5.70;;;;;;;5.97;100.00;100820.03;5070496;28;20383;-76
2023/12/12 00:28:27;;;;;;;14.25;5.30;;;;;;;5.87;100.00;100815.66;5071883;28;20127;-71
2023/12/12 00:30:52;;;;;;;21.40;5.47;;;;;;;5.82;100.00;100817.44;5070403;28;20028;-71
2023/12/12 00:33:18;;;;;;;15.65;5.07;;;;;;;5.71;100.00;100817.47;5071701;28;20041;-71
2023/12/12 00:35:43;;;;;;;15.10;4.93;;;;;;;5.63;100.00;100815.72;5070240;28;20048;-71
2023/12/12 00:38:09;;;;;;;12.35;4.90;;;;;;;5.54;100.00;100822.75;5052702;28;20032;-71
2023/12/12 00:40:34;;;;;;;15.40;5.30;;;;;;;5.48;100.00;100814.00;5060454;28;20379;-71
2023/12/12 00:43:00;;;;;;;16.55;5.53;;;;;;;5.42;100.00;100820.16;5070248;28;20039;-71
2023/12/12 00:45:25;;;;;;;13.48;5.10;;;;;;;5.37;100.00;100819.28;5052752;28;20043;-71
2023/12/12 00:47:51;;;;;;;17.67;5.82;;;;;;;5.34;100.00;100825.41;5071526;28;20195;-71
2023/12/12 00:50:16;;;;;;;14.77;5.07;;;;;;;5.30;100.00;100817.53;5071414;28;20039;-71
2023/12/12 00:52:42;;;;;;;13.20;4.25;;;;;;;5.26;100.00;100818.41;5071290;28;20106;-71
2023/12/12 00:55:08;;;;;;;11.75;4.75;;;;;;;5.23;100.00;100815.78;5070427;28;20434;-71
2023/12/12 00:57:33;;;;;;;13.93;5.07;;;;;;;5.18;100.00;100808.75;5074259;28;20044;-71
2023/12/12 00:59:59;;;;;;;13.65;4.82;;;;;;;5.13;100.00;100815.78;5074302;28;20036;-71
2023/12/12 01:02:25;;;;;;;12.82;5.53;;;;;;;5.06;100.00;100816.63;5075211;28;20395;-71
2023/12/12 01:04:51;;;;;;;19.27;5.05;;;;;;;5.03;100.00;100811.41;5075567;28;20049;-72
2023/12/12 01:07:17;;;;;;;17.80;5.72;;;;;;;4.93;100.00;100812.28;5075317;28;20071;-71
2023/12/12 01:09:43;;;;;;;19.33;4.95;;;;;;;4.89;100.00;100806.13;5074116;28;20060;-71
2023/12/12 01:12:08;;;;;;;14.95;4.40;;;;;;;4.84;100.00;100799.13;5075386;28;20483;-71
2023/12/12 01:14:34;;;;;;;9.45;4.07;;;;;;;4.78;100.00;100805.25;5075308;28;20068;-71
2023/12/12 01:17:00;;;;;;;15.32;4.88;;;;;;;4.74;100.00;100803.50;5075457;28;20431;-71
2023/12/12 01:19:26;;;;;;;13.68;5.18;;;;;;;4.75;100.00;100800.03;5073876;28;20037;-71
2023/12/12 01:21:51;;;;;;;11.98;4.97;;;;;;;4.73;100.00;100801.75;5075157;28;20579;-71
2023/12/12 01:24:17;;;;;;;12.63;4.78;;;;;;;4.76;100.00;100804.38;5073517;28;20119;-71
2023/12/12 01:26:42;;;;;;;11.10;5.15;;;;;;;4.78;100.00;100788.66;5057198;28;20085;-71
2023/12/12 01:29:09;;;;;;;16.08;5.50;;;;;;;4.77;100.00;100781.63;5074859;28;20432;-71
2023/12/12 01:31:34;;;;;;;14.18;5.32;;;;;;;4.79;100.00;100786.00;5073485;28;20036;-71
2023/12/12 01:34:00;;;;;;;13.93;4.82;;;;;;;4.79;100.00;100783.38;5073698;28;20540;-71
2023/12/12 01:36:26;;;;;;;18.40;5.47;;;;;;;4.71;100.00;100772.03;5074610;28;20403;-71
2023/12/12 01:38:51;;;;;;;13.40;5.05;;;;;;;4.71;100.00;100775.50;5073412;28;20025;-71
2023/12/12 01:41:18;;;;;;;14.95;4.20;;;;;;;4.73;100.00;100781.63;5074616;28;20376;-71
2023/12/12 01:43:43;;;;;;;15.27;4.50;;;;;;;4.70;100.00;100779.03;5072645;28;20041;-71
2023/12/12 01:46:13;;;;;;;15.27;4.57;;;;;;;4.68;100.00;100775.50;5074507;28;20037;-71
2023/12/12 01:48:39;;;;;;;15.00;4.95;;;;;;;4.66;100.00;100777.25;5073138;28;20553;-71
2023/12/12 01:51:05;;;;;;;19.55;5.00;;;;;;;4.62;100.00;100775.50;5056502;28;20033;-71
2023/12/12 01:53:35;;;;;;;14.02;4.32;;;;;;;4.65;100.00;100786.00;5074378;28;20408;-71
2023/12/12 01:56:05;;;;;;;12.63;4.75;;;;;;;4.63;100.00;100776.38;5056689;28;20040;-71
2023/12/12 01:58:31;;;;;;;15.45;4.88;;;;;;;4.63;100.00;100787.75;5073150;28;20371;-71
2023/12/12 02:00:57;;;;;;;15.45;4.93;;;;;;;4.61;100.00;100776.38;5074539;28;20028;-71
2023/12/12 02:03:24;;;;;;;14.80;4.55;;;;;;;4.60;100.00;100777.25;5074172;28;20569;-71
2023/12/12 02:05:50;;;;;;;17.45;4.40;;;;;;;4.58;100.00;100781.63;5073286;28;20051;-70
2023/12/12 02:08:16;;;;;;;19.48;5.10;;;;;;;4.59;100.00;100780.75;5074334;28;20035;-71
2023/12/12 02:10:42;;;;;;;15.50;5.07;;;;;;;4.55;100.00;100772.84;5056280;28;20040;-71
2023/12/12 02:13:07;;;;;;;10.98;4.03;;;;;;;4.55;100.00;100791.22;5074177;28;20098;-71
2023/12/12 02:15:33;;;;;;;22.33;5.50;;;;;;;4.54;100.00;100777.22;5074379;28;20132;-71
2023/12/12 02:17:58;;;;;;;13.65;4.30;;;;;;;4.52;100.00;100781.59;5072910;28;20032;-71
2023/12/12 02:20:24;;;;;;;17.20;4.30;;;;;;;4.52;100.00;100781.59;5074000;28;20090;-71
2023/12/12 02:22:49;;;;;;;25.08;5.28;;;;;;;4.51;100.00;100783.34;5072767;28;20052;-71
2023/12/12 02:25:18;;;;;;;23.92;6.00;;;;;;;4.55;100.00;100780.72;5074498;28;20033;-71
2023/12/12 02:27:43;;;;;;;24.58;5.28;;;;;;;4.56;100.00;100774.63;5072646;28;20033;-71
2023/12/12 02:30:11;;;;;;;16.48;4.57;;;;;;;4.58;100.00;100772.88;5073328;28;20070;-71
2023/12/12 02:32:36;;;;;;;17.20;4.32;;;;;;;4.55;100.00;100770.25;5073419;28;20040;-71
2023/12/12 02:35:02;;;;;;;20.40;4.20;;;;;;;4.54;100.00;100764.13;5073973;28;20020;-71
2023/12/12 02:37:28;;;;;;;18.13;4.18;;;;;;;4.56;100.00;100769.38;5072708;28;20071;-71
2023/12/12 02:39:53;;;;;;;23.30;4.75;;;;;;;4.53;100.00;100762.38;5071511;28;20096;-71
2023/12/12 02:42:19;;;;;;;15.02;4.57;;;;;;;4.47;100.00;100757.13;5073750;28;20028;-71
2023/12/12 02:44:44;;;;;;;22.20;4.63;;;;;;;4.49;100.00;100764.09;5071087;28;20045;-71
2023/12/12 02:47:10;;;;;;;26.13;5.10;;;;;;;4.48;100.00;100761.50;5072222;28;20050;-71
2023/12/12 02:49:35;;;;;;;16.10;4.35;;;;;;;4.42;100.00;100753.63;5073463;28;20020;-71
2023/12/12 02:52:01;;;;;;;15.32;4.18;;;;;;;4.34;100.00;100734.38;5073652;28;20036;-71
2023/12/12 02:54:26;;;;;;;21.08;5.30;;;;;;;4.41;100.00;100755.38;5072002;28;20374;-71
2023/12/12 02:56:52;;;;;;;23.15;4.63;;;;;;;4.41;100.00;100755.38;5072257;28;20040;-71
2023/12/12 02:59:18;;;;;;;26.27;5.40;;;;;;;4.40;100.00;100757.97;5072060;28;20119;-71
2023/12/12 03:01:43;;;;;;;21.67;5.15;;;;;;;4.40;100.00;100751.00;5073209;28;20427;-71
2023/12/12 03:04:08;;;;;;;29.13;5.05;;;;;;;4.37;100.00;100756.22;5071988;28;20111;-71
2023/12/12 03:06:34;;;;;;;17.65;4.25;;;;;;;4.37;100.00;100769.31;5055084;28;20055;-71
2023/12/12 03:08:59;;;;;;;17.08;4.03;;;;;;;4.34;100.00;100761.47;5071972;28;20049;-71
2023/12/12 03:11:25;;;;;;;23.95;4.53;;;;;;;4.35;100.00;100757.09;5071726;28;20044;-71
2023/12/12 03:13:50;;;;;;;23.92;5.13;;;;;;;4.31;100.00;100758.84;5073130;28;20036;-71
2023/12/12 03:16:16;;;;;;;19.25;4.32;;;;;;;4.27;100.00;100757.94;5071566;28;20435;-71
2023/12/12 03:18:41;;;;;;;19.05;4.53;;;;;;;4.25;100.00;100749.22;5071194;28;20024;-71
2023/12/12 03:21:07;;;;;;;18.42;4.55;;;;;;;4.27;100.00;100749.22;5072828;28;20044;-71
2023/12/12 03:23:32;;;;;;;19.52;4.35;;;;;;;4.27;100.00;100750.06;5072683;28;20036;-71
2023/12/12 03:26:01;;;;;;;18.42;4.50;;;;;;;4.29;100.00;100736.97;5071825;28;20036;-71
2023/12/12 03:28:28;;;;;;;24.48;5.18;;;;;;;4.32;100.00;100735.22;5071144;28;20036;-71
2023/12/12 03:30:53;;;;;;;20.70;5.10;;;;;;;4.34;100.00;100737.88;5072936;28;20088;-71
2023/12/12 03:33:19;;;;;;;19.05;4.72;;;;;;;4.30;100.00;100733.47;5054631;28;20120;-71
2023/12/12 03:35:44;;;;;;;23.63;4.72;;;;;;;4.29;100.00;100731.75;5054796;28;20036;-71
2023/12/12 03:38:09;;;;;;;24.45;5.05;;;;;;;4.31;100.00;100741.34;5070194;28;20036;-71
2023/12/12 03:40:35;;;;;;;22.65;5.18;;;;;;;4.30;100.00;100742.25;5072365;28;20032;-71
2023/12/12 03:43:01;;;;;;;19.92;4.32;;;;;;;4.28;100.00;100741.38;5070264;28;20040;-71
2023/12/12 03:45:26;;;;;;;25.60;5.72;;;;;;;4.30;100.00;100738.72;5071242;28;20021;-71
2023/12/12 03:47:52;;;;;;;15.77;4.43;;;;;;;4.32;100.00;100740.47;5072544;28;20039;-71
2023/12/12 03:50:18;;;;;;;19.48;5.15;;;;;;;4.34;100.00;100729.13;5070884;28;20071;-71
2023/12/12 03:52:43;;;;;;;24.00;5.18;;;;;;;4.42;100.00;100727.38;5072398;28;20079;-71
2023/12/12 03:55:09;;;;;;;20.70;4.78;;;;;;;4.45;100.00;100714.28;5072127;28;20051;-70
2023/12/12 03:57:34;;;;;;;22.65;5.07;;;;;;;4.50;100.00;100709.91;5070590;28;20024;-71
2023/12/12 04:00:00;;;;;;;21.27;5.50;;;;;;;4.53;100.00;100697.69;5034342;28;20039;-71
2023/12/12 04:02:26;;;;;;;19.20;4.53;;;;;;;4.57;100.00;100698.56;5069649;28;20044;-71
2023/12/12 04:04:51;;;;;;;26.00;5.43;;;;;;;4.61;100.00;100696.81;5070747;28;20064;-71
2023/12/12 04:07:17;;;;;;;24.30;5.85;;;;;;;4.65;100.00;100695.94;5034371;28;20040;-71
2023/12/12 04:09:43;;;;;;;33.15;5.47;;;;;;;4.67;100.00;100692.47;5070852;28;20484;-71
2023/12/12 04:12:08;;;;;;;23.88;4.45;;;;;;;4.70;100.00;100681.97;5070767;28;20127;-70
2023/12/12 04:14:34;;;;;;;29.13;5.20;;;;;;;4.72;100.00;100677.59;5070507;28;20044;-71
2023/12/12 04:16:59;;;;;;;17.80;5.40;;;;;;;4.72;100.00;100676.69;5053929;28;20127;-70
2023/12/12 04:19:25;;;;;;;16.38;4.45;;;;;;;4.76;100.00;100677.59;5071990;28;20028;-70
2023/12/12 04:21:51;;;;;;;32.15;5.35;;;;;;;4.80;100.00;100682.84;5070563;28;20125;-71
2023/12/12 04:24:16;;;;;;;29.15;5.50;;;;;;;4.84;100.00;100683.69;5050551;28;20033;-70
2023/12/12 04:26:43;;;;;;;33.53;5.78;;;;;;;4.88;100.00;100686.31;5054093;28;20475;-70
2023/12/12 04:29:08;;;;;;;28.60;5.82;;;;;;;4.93;100.00;100684.56;5071916;28;20052;-70
2023/12/12 04:31:35;;;;;;;33.63;5.85;;;;;;;4.98;100.00;100683.69;5036351;28;20016;-70
2023/12/12 04:34:01;;;;;;;28.45;6.20;;;;;;;5.04;100.00;100686.28;5070533;28;20050;-70
2023/12/12 04:36:26;;;;;;;25.50;7.15;;;;;;;5.04;100.00;100676.66;5070479;28;20036;-70
2023/12/12 04:38:52;;;;;;;25.38;5.22;;;;;;;5.08;100.00;100675.78;5053532;28;20082;-70
2023/12/12 04:41:17;;;;;;;28.90;4.88;;;;;;;5.11;100.00;100677.53;5053736;28;20033;-70
2023/12/12 04:43:43;;;;;;;30.38;5.57;;;;;;;5.13;100.00;100670.53;5069349;28;20074;-70
2023/12/12 04:46:09;;;;;;;26.00;5.68;;;;;;;5.13;100.00;100665.28;5070412;28;20052;-70
2023/12/12 04:48:35;;;;;;;29.60;5.78;;;;;;;5.15;100.00;100668.78;5070162;28;20037;-70
2023/12/12 04:51:02;;;;;;;23.65;5.93;;;;;;;5.18;100.00;100663.50;5070366;28;20043;-70
2023/12/12 04:53:28;;;;;;;22.25;5.25;;;;;;;5.21;100.00;100665.25;5053378;28;20408;-70
2023/12/12 04:55:53;;;;;;;28.67;5.90;;;;;;;5.23;100.00;100666.13;5071393;28;20037;-70
2023/12/12 04:58:18;;;;;;;27.70;7.53;;;;;;;5.24;100.00;100660.00;5070286;28;20040;-70
2023/12/12 05:00:44;;;;;;;27.73;6.35;;;;;;;5.25;100.00;100652.13;5070089;28;20028;-70
2023/12/12 05:03:10;;;;;;;25.42;6.80;;;;;;;5.26;100.00;100648.59;5071426;28;20054;-70
2023/12/12 05:05:35;;;;;;;24.65;6.53;;;;;;;5.30;100.00;100649.47;5034018;28;20123;-70
2023/12/12 05:08:00;;;;;;;35.78;6.93;;;;;;;5.31;100.00;100644.22;5071450;28;20036;-70
2023/12/12 05:10:26;;;;;;;34.95;7.25;;;;;;;5.32;100.00;100640.72;5070168;28;20123;-70
2023/12/12 05:12:51;;;;;;;23.98;6.57;;;;;;;5.33;100.00;100639.81;5069896;28;20039;-70
2023/12/12 05:15:17;;;;;;;26.83;5.30;;;;;;;5.35;100.00;100638.06;5070213;28;20040;-70
2023/12/12 05:17:42;;;;;;;44.05;6.70;;;;;;;5.34;100.00;100631.09;5051779;28;20454;-70
2023/12/12 05:20:09;;;;;;;26.13;5.25;;;;;;;5.36;100.00;100634.56;5070256;28;20043;-70
2023/12/12 05:22:34;;;;;;;27.17;6.60;;;;;;;5.37;100.00;100632.84;5069776;28;20060;-70
2023/12/12 05:25:00;;;;;;;27.52;5.22;;;;;;;5.38;100.00;100634.56;5070173;28;20062;-70
2023/12/12 05:27:25;;;;;;;32.55;6.53;;;;;;;5.39;100.00;100631.94;5036464;28;20124;-70
2023/12/12 05:29:51;;;;;;;30.45;6.50;;;;;;;5.39;100.00;100629.31;5071140;28;20035;-70
2023/12/12 05:32:16;;;;;;;26.45;6.07;;;;;;;5.42;100.00;100619.69;5053386;28;20055;-70
2023/12/12 05:34:42;;;;;;;29.90;6.90;;;;;;;5.43;100.00;100624.91;5069805;28;20044;-70
2023/12/12 05:37:08;;;;;;;29.10;6.68;;;;;;;5.44;100.00;100626.69;5071210;28;20040;-70
2023/12/12 05:39:33;;;;;;;21.08;6.13;;;;;;;5.45;100.00;100632.78;5069436;28;20052;-70
2023/12/12 05:41:59;;;;;;;38.17;6.50;;;;;;;5.45;100.00;100625.78;5054547;28;20120;-70
2023/12/12 05:44:24;;;;;;;30.90;6.43;;;;;;;5.45;100.00;100627.53;5072330;28;20063;-70
2023/12/12 05:46:50;;;;;;;30.15;6.15;;;;;;;5.46;100.00;100622.25;5056774;28;20021;-70
2023/12/12 05:49:16;;;;;;;32.38;6.80;;;;;;;5.48;100.00;100623.13;5074567;28;20039;-70
2023/12/12 05:51:42;;;;;;;31.70;6.75;;;;;;;5.47;100.00;100626.66;5074818;28;20032;-70
2023/12/12 05:54:11;;;;;;;22.38;5.60;;;;;;;5.48;100.00;100623.13;5073382;28;20059;-70
2023/12/12 05:56:43;;;;;;;30.95;6.30;;;;;;;5.50;100.00;100620.50;5074489;28;20033;-70
2023/12/12 05:59:08;;;;;;;21.92;5.10;;;;;;;5.52;100.00;100630.13;5073423;28;20036;-70
2023/12/12 06:01:34;;;;;;;25.80;6.28;;;;;;;5.54;100.00;100623.13;5056341;28;20060;-70
2023/12/12 06:04:00;;;;;;;25.83;6.40;;;;;;;5.56;100.00;100621.38;5074468;28;20371;-70
2023/12/12 06:06:25;;;;;;;37.42;6.32;;;;;;;5.57;100.00;100616.97;5074507;28;20043;-70
2023/12/12 06:08:52;;;;;;;35.35;6.13;;;;;;;5.60;100.00;100616.97;5056360;28;20119;-70
2023/12/12 06:11:19;;;;;;;29.85;5.60;;;;;;;5.62;100.00;100617.81;5074276;28;20032;-70
2023/12/12 06:13:45;;;;;;;23.30;5.32;;;;;;;5.63;100.00;100622.19;5072996;28;20040;-70
2023/12/12 06:16:11;;;;;;;25.10;6.47;;;;;;;5.65;100.00;100609.91;5072907;28;20044;-70
2023/12/12 06:18:36;;;;;;;33.90;6.75;;;;;;;5.68;100.00;100622.16;5072801;28;20052;-70
2023/12/12 06:21:02;;;;;;;24.88;5.75;;;;;;;5.67;100.00;100608.16;5072755;28;20032;-70
2023/12/12 06:23:28;;;;;;;26.27;6.05;;;;;;;5.70;100.00;100604.66;5072384;28;20511;-70
2023/12/12 06:25:54;;;;;;;25.85;5.75;;;;;;;5.72;100.00;100608.16;5073013;28;20040;-71
2023/12/12 06:28:19;;;;;;;29.30;7.53;;;;;;;5.74;100.00;100598.50;5055966;28;20044;-71
2023/12/12 06:30:45;;;;;;;35.97;7.57;;;;;;;5.75;100.00;100592.34;5036294;28;20468;-71
2023/12/12 06:33:10;;;;;;;25.88;5.70;;;;;;;5.75;100.00;100595.84;5055754;28;20068;-71
2023/12/12 06:35:36;;;;;;;31.77;7.50;;;;;;;5.75;100.00;100592.34;5072561;28;20040;-71
2023/12/12 06:38:03;;;;;;;19.35;5.97;;;;;;;5.73;100.00;100587.09;5039051;28;20032;-71
2023/12/12 06:40:30;;;;;;;28.95;7.15;;;;;;;5.69;100.00;100574.88;5052604;28;20047;-71
2023/12/12 06:42:55;;;;;;;32.97;8.55;;;;;;;5.69;100.00;100580.13;5061264;28;20041;-71
2023/12/12 06:45:21;;;;;;;28.23;7.85;;;;;;;5.66;100.00;100582.75;5069897;28;20377;-71
2023/12/12 06:47:46;;;;;;;27.73;7.07;;;;;;;5.67;100.00;100566.13;5055799;28;20041;-71
2023/12/12 06:50:12;;;;;;;28.23;6.40;;;;;;;5.66;100.00;100574.00;5073627;28;20113;-71
2023/12/12 06:52:37;;;;;;;26.27;6.18;;;;;;;5.64;100.00;100566.16;5054948;28;20040;-71
2023/12/12 06:55:03;;;;;;;22.73;6.13;;;;;;;5.64;100.00;100568.78;5073072;28;20115;-70
2023/12/12 06:57:29;;;;;;;32.35;6.78;;;;;;;5.64;100.00;100562.63;5055350;28;20058;-70
2023/12/12 06:59:54;;;;;;;27.60;6.72;;;;;;;5.63;100.00;100564.41;5073474;28;20387;-70
2023/12/12 07:02:20;;;;;;;26.02;5.63;;;;;;;5.63;100.00;100561.75;5073001;28;20448;-71
2023/12/12 07:04:45;;;;;;;30.60;6.28;;;;;;;5.60;100.00;100562.66;5071837;28;20344;-70
2023/12/12 07:07:11;;;;;;;25.92;6.22;;;;;;;5.59;100.00;100555.69;5072642;28;20329;-71
2023/12/12 07:09:37;;;;;;;29.83;5.93;;;;;;;5.59;100.00;100562.69;5053853;28;20036;-70
2023/12/12 07:12:04;;;;;;;34.25;6.40;;;;;;;5.62;100.00;100567.06;5071046;28;20032;-71
2023/12/12 07:14:30;;;;;;;24.85;5.88;;;;;;;5.61;100.00;100563.53;5072508;28;20105;-71
2023/12/12 07:16:56;;;;;;;25.15;6.68;;;;;;;5.66;100.00;100558.25;5056150;28;20135;-71
2023/12/12 07:19:22;;;;;;;23.75;5.30;;;;;;;5.65;100.00;100559.16;5072616;28;20479;-71
2023/12/12 07:21:47;;;;;;;32.60;6.07;;;;;;;5.62;100.00;100556.53;5072352;28;20044;-71
2023/12/12 07:24:14;;;;;;;22.48;5.13;;;;;;;5.60;100.00;100556.53;5072018;28;20491;-71
2023/12/12 07:26:44;;;;;;;24.73;5.88;;;;;;;5.59;100.00;100554.81;5071414;28;20131;-71
2023/12/12 07:29:09;;;;;;;25.98;6.45;;;;;;;5.62;100.00;100551.28;5072114;28;20062;-71
2023/12/12 07:31:35;;;;;;;28.63;6.15;;;;;;;5.63;100.00;100555.66;5071535;28;20670;-72
2023/12/12 07:34:00;;;;;;;30.33;6.47;;;;;;;5.63;100.00;100543.38;5072093;28;20033;-71
2023/12/12 07:36:26;;;;;;;25.33;5.30;;;;;;;5.66;100.00;100542.50;5071767;28;20049;-71
2023/12/12 07:38:51;;;;;;;25.58;6.13;;;;;;;5.67;100.00;100536.38;5068430;28;20114;-72
2023/12/12 07:41:17;;;;;;;20.50;5.20;;;;;;;5.68;100.00;100535.47;5070877;28;20028;-72
2023/12/12 07:43:42;;;;;;;21.33;5.50;;;;;;;5.68;100.00;100541.59;5068188;28;20464;-71
2023/12/12 07:46:08;;;;;;;28.23;6.45;;;;;;;5.71;100.00;100531.09;5069275;28;20028;-72
2023/12/12 07:48:33;;;;;;;20.15;5.38;;;;;;;5.72;100.00;100531.94;5071838;28;20123;-72
2023/12/12 07:50:59;;;;;;;26.15;5.15;;;;;;;5.69;100.00;100514.47;5072000;28;20068;-72
2023/12/12 07:53:24;;;;;;;37.38;7.60;;;;;;;5.69;100.00;100513.59;5070196;28;20059;-71
2023/12/12 07:55:50;;;;;;;20.33;5.22;;;;;;;5.67;100.00;100510.97;5070923;28;20024;-72
2023/12/12 07:58:17;;;;;;;21.85;5.05;;;;;;;5.66;100.00;100509.19;5072239;28;20483;-71
2023/12/12 08:00:44;;;;;;;14.80;4.85;;;;;;;5.63;100.00;100514.47;5070675;28;20054;-72
2023/12/12 08:03:09;;;;;;;28.67;7.07;;;;;;;5.60;100.00;100509.25;5072128;28;20556;-73
2023/12/12 08:05:37;;;;;;;32.22;6.57;;;;;;;5.64;100.00;100499.59;5070767;28;20144;-72
2023/12/12 08:08:04;;;;;;;28.73;5.82;;;;;;;5.66;100.00;100500.44;5071834;28;20028;-72
2023/12/12 08:10:30;;;;;;;27.92;6.05;;;;;;;5.66;100.00;100498.69;5072156;28;20029;-72
2023/12/12 08:12:57;;;;;;;31.33;6.00;;;;;;;5.69;100.00;100501.31;5070662;28;20040;-72
2023/12/12 08:15:23;;;;;;;29.60;6.60;;;;;;;5.70;100.00;100499.56;5072163;28;20086;-71
2023/12/12 08:17:49;;;;;;;21.13;5.93;;;;;;;5.71;100.00;100498.66;5053679;28;20438;-71
2023/12/12 08:20:14;;;;;;;27.75;6.20;;;;;;;5.73;100.00;100484.63;5071838;28;20040;-71
2023/12/12 08:22:40;;;;;;;21.77;5.45;;;;;;;5.77;100.00;100488.13;5071560;28;20059;-71
2023/12/12 08:25:07;;;;;;;31.77;5.85;;;;;;;5.81;100.00;100485.47;5071739;28;20526;-71
2023/12/12 08:27:33;;;;;;;23.52;5.93;;;;;;;5.86;100.00;100485.44;5071836;28;20115;-72
2023/12/12 08:30:04;;;;;;;26.10;6.13;;;;;;;5.94;100.00;100482.78;5050424;28;20116;-71
2023/12/12 08:32:29;;;;;;;35.67;6.32;;;;;;;5.99;100.00;100478.34;5062811;28;20086;-71
2023/12/12 08:34:55;;;;;;;38.08;6.00;;;;;;;6.06;100.00;100474.78;5070275;28;20048;-72
2023/12/12 08:37:21;;;;;;;25.10;6.25;;;;;;;6.12;100.00;100479.09;5071681;28;20068;-72
2023/12/12 08:39:47;;;;;;;24.38;5.65;;;;;;;6.15;100.00;100474.66;5068398;28;20374;-72
2023/12/12 08:42:15;;;;;;;24.80;5.82;;;;;;;6.20;100.00;100467.59;5071604;28;20101;-72
2023/12/12 08:44:41;;;;;;;23.25;6.13;;;;;;;6.27;100.00;100465.78;5069665;28;20132;-71
2023/12/12 08:47:09;;;;;;;27.33;6.63;;;;;;;6.35;100.00;100474.47;5072920;28;20442;-71
2023/12/12 08:49:37;;;;;;;25.67;5.30;;;;;;;6.42;100.00;100470.00;5071440;28;20044;-72
2023/12/12 08:52:06;;;;;;;26.02;6.22;;;;;;;6.49;100.00;100462.94;5071367;28;20040;-71
2023/12/12 08:54:33;;;;;;;34.47;7.70;;;;;;;6.53;100.00;100456.72;5071513;28;20100;-71
2023/12/12 08:56:59;;;;;;;26.38;6.82;;;;;;;6.63;100.00;100455.75;5071467;28;20043;-72
2023/12/12 08:59:24;;;;;;;31.83;5.85;;;;;;;6.68;100.00;100446.06;5071383;28;20046;-71
2023/12/12 09:01:50;;;;;;;24.58;5.72;;;;;;;6.76;100.00;100451.22;5071095;28;20045;-72
2023/12/12 09:04:16;;;;;;;22.17;5.47;;;;;;;6.82;100.00;100448.50;5069814;28;20021;-71
2023/12/12 09:06:45;;;;;;;26.60;6.47;;;;;;;6.86;100.00;100437.06;5070193;28;20548;-72
2023/12/12 09:09:11;;;;;;;29.05;6.03;;;;;;;6.94;100.00;100443.06;5071039;28;20093;-72
2023/12/12 09:11:39;;;;;;;34.65;6.47;;;;;;;6.99;100.00;100441.25;5071462;28;20064;-71
2023/12/12 09:14:04;;;;;;;28.73;4.95;;;;;;;7.04;100.00;100439.41;5071344;28;20475;-71
2023/12/12 09:16:31;;;;;;;25.95;5.28;;;;;;;7.09;100.00;100426.19;5070265;28;20049;-71
2023/12/12 09:18:56;;;;;;;30.85;6.32;;;;;;;7.15;100.00;100420.84;5075219;28;20025;-72
2023/12/12 09:21:22;;;;;;;27.70;5.93;;;;;;;7.22;100.00;100414.63;5057319;28;20355;-72
2023/12/12 09:23:47;;;;;;;20.35;5.00;;;;;;;7.28;100.00;100406.59;5074652;28;20039;-71
2023/12/12 09:26:16;;;;;;;27.83;5.35;;;;;;;7.35;100.00;100402.13;5074512;28;20526;-71
2023/12/12 09:28:42;;;;;;;30.75;6.82;;;;;;;7.42;100.00;100409.03;5073031;28;20052;-71
2023/12/12 09:31:09;;;;;;;21.00;4.80;;;;;;;7.50;100.00;100403.63;5074600;28;20102;-71
2023/12/12 09:33:35;;;;;;;23.83;5.65;;;;;;;7.58;100.00;100411.41;5075023;28;20032;-72
2023/12/12 09:36:01;;;;;;;27.38;5.60;;;;;;;7.64;100.00;100411.28;5074877;28;20032;-72
2023/12/12 09:38:26;;;;;;;24.88;6.32;;;;;;;7.69;100.00;100402.44;5074400;28;20038;-71
2023/12/12 09:40:56;;;;;;;30.48;5.28;;;;;;;7.76;100.00;100403.19;5037137;28;20479;-71
2023/12/12 09:43:26;;;;;;;17.58;4.97;;;;;;;7.83;100.00;100394.28;5070870;28;20414;-72
2023/12/12 09:45:55;;;;;;;21.80;4.78;;;;;;;7.89;100.00;100396.81;5070443;28;20059;-71
2023/12/12 09:48:21;;;;;;;20.27;4.82;;;;;;;7.96;100.00;100398.44;5074541;28;20032;-71
2023/12/12 09:50:47;;;;;;;21.73;5.57;;;;;;;8.00;100.00;100387.84;5074546;28;20032;-71
2023/12/12 09:53:13;;;;;;;23.55;5.63;;;;;;;8.05;100.00;100389.47;5056613;28;20131;-71
2023/12/12 09:55:40;;;;;;;30.02;5.68;;;;;;;8.04;100.00;100377.22;5074127;28;20445;-71
2023/12/12 09:58:06;;;;;;;18.77;4.78;;;;;;;8.09;100.00;100378.00;5073137;28;20037;-71
2023/12/12 10:00:32;;;;;;;22.70;5.47;;;;;;;8.11;100.00;100367.38;5058866;28;20048;-71
2023/12/12 10:02:59;;;;;;;22.58;5.40;;;;;;;8.14;100.00;100365.59;5061921;28;20048;-71
2023/12/12 10:05:32;;;;;;;25.10;4.90;;;;;;;8.16;100.00;100352.38;5061982;28;20487;-71
2023/12/12 10:07:59;;;;;;;27.85;5.80;;;;;;;8.19;100.00;100350.53;5064907;28;20029;-71
2023/12/12 10:10:25;;;;;;;21.25;5.70;;;;;;;8.26;100.00;100343.38;5073992;28;20386;-71
2023/12/12 10:12:50;;;;;;;22.70;4.65;;;;;;;8.32;100.00;100339.72;5073930;28;20037;-70
2023/12/12 10:15:26;;;;;;;20.60;4.60;;;;;;;8.40;100.00;100328.13;5072917;28;20040;-72
2023/12/12 10:17:59;;;;;;;29.48;5.03;;;;;;;8.52;100.00;100320.88;5056552;28;20329;-71
2023/12/12 10:20:27;;;;;;;16.83;4.57;;;;;;;8.56;100.00;100315.50;5062875;28;20615;-71
2023/12/12 10:23:00;;;;;;;15.80;4.43;;;;;;;8.60;100.00;100318.91;5058421;28;20049;-71
2023/12/12 10:25:33;;;;;;;18.48;5.60;;;;;;;8.63;100.00;100318.00;5065261;28;20364;-71
2023/12/12 10:28:00;;;;;;;18.20;4.30;;;;;;;8.70;100.00;100316.94;5056514;28;20127;-71
2023/12/12 10:30:26;;;;;;;19.30;4.53;;;;;;;8.76;100.00;100317.69;5073544;28;20037;-71
2023/12/12 10:32:53;;;;;;;18.85;4.40;;;;;;;8.84;100.00;100306.94;5062524;28;20032;-71
2023/12/12 10:35:23;;;;;;;16.73;3.90;;;;;;;8.91;100.00;100312.97;5073896;28;20037;-71
2023/12/12 10:37:49;;;;;;;14.15;3.60;;;;;;;9.00;100.00;100305.69;5071291;28;20036;-71
2023/12/12 10:40:21;;;;;;;17.77;3.80;;;;;;;9.09;100.00;100301.09;5072994;28;20052;-71
2023/12/12 10:42:47;;;;;;;13.48;3.20;;;;;;;9.17;100.00;100297.38;5072930;28;20032;-71
2023/12/12 10:45:14;;;;;;;14.57;3.67;;;;;;;9.26;100.00;100285.69;5068573;28;20032;-71
2023/12/12 10:47:45;;;;;;;13.73;3.15;;;;;;;9.34;100.00;100285.47;5071825;28;20021;-71
2023/12/12 10:50:15;;;;;;;14.30;3.65;;;;;;;9.46;100.00;100287.81;5072133;28;20467;-71
2023/12/12 10:52:44;;;;;;;16.35;3.53;;;;;;;9.55;100.00;100273.50;5072285;28;20025;-72
2023/12/12 10:55:11;;;;;;;15.27;2.92;;;;;;;9.62;100.00;100283.00;5073400;28;20447;-71
2023/12/12 10:57:39;;;;;;;13.40;3.35;;;;;;;9.67;100.00;100271.38;5071714;28;20041;-71
2023/12/12 11:00:11;;;;;;;13.68;2.92;;;;;;;9.68;100.00;100266.97;5073030;28;20032;-71
2023/12/12 11:02:44;;;;;;;15.00;3.33;;;;;;;9.75;100.00;100265.03;5063906;28;20046;-71
2023/12/12 11:05:11;;;;;;;13.35;3.20;;;;;;;9.77;100.00;100261.44;5071181;28;20071;-71
2023/12/12 11:07:38;;;;;;;10.90;2.67;;;;;;;9.78;100.00;100249.06;5070333;28;20021;-71
2023/12/12 11:10:07;;;;;;;10.48;2.90;;;;;;;9.81;100.00;100247.19;5072813;28;20047;-71
2023/12/12 11:12:34;;;;;;;11.57;3.10;;;;;;;9.86;100.00;100242.63;5073012;28;20596;-71